Time;durP1;ratioP1;P1;durP2;ratioP2;P2;SDS_P1;SDS_P2;PMS_P1;PMS_P2;Temp;Humidity;BMP_temperature;BMP_pressure;BME280_temperature;BME280_humidity;BME280_pressure;Samples;Min_cycle;Max_cycle;Signal;HPM_P1;HPM_P2
2021/01/05 00:01:12;;;;;;;37.23;25.83;;;8.20;99.50;;;;;;5093849;28;20554;-62
2021/01/05 00:03:38;;;;;;;36.00;24.47;;;8.20;99.50;;;;;;5097674;28;20035;-63
2021/01/05 00:06:05;;;;;;;40.03;26.27;;;8.20;99.50;;;;;;5089167;28;20066;-62
2021/01/05 00:08:30;;;;;;;36.80;25.43;;;8.20;99.50;;;;;;5100287;28;20043;-62
2021/01/05 00:10:56;;;;;;;36.60;25.43;;;8.30;99.40;;;;;;5093063;27;20059;-62
2021/01/05 00:13:22;;;;;;;39.10;27.43;;;8.20;99.60;;;;;;5097235;28;20036;-61
2021/01/05 00:15:48;;;;;;;38.60;26.67;;;8.20;99.50;;;;;;5090739;28;20126;-61
2021/01/05 00:18:14;;;;;;;44.77;28.77;;;8.20;99.50;;;;;;5091927;28;20044;-61
2021/01/05 00:20:40;;;;;;;41.13;27.03;;;8.20;99.60;;;;;;5089840;27;20436;-63
2021/01/05 00:23:05;;;;;;;39.07;27.90;;;8.20;99.50;;;;;;5097957;28;20032;-62
2021/01/05 00:25:31;;;;;;;37.37;26.20;;;8.20;99.80;;;;;;5095380;28;20139;-62
2021/01/05 00:27:57;;;;;;;40.47;27.63;;;8.20;99.50;;;;;;5091456;27;20104;-62
2021/01/05 00:30:24;;;;;;;40.63;28.10;;;8.20;99.80;;;;;;5095767;27;20105;-62
2021/01/05 00:32:52;;;;;;;41.63;27.47;;;8.20;99.80;;;;;;5094400;28;20042;-61
2021/01/05 00:35:22;;;;;;;40.63;28.50;;;8.30;99.30;;;;;;5097926;27;20039;-62
2021/01/05 00:37:48;;;;;;;41.00;27.33;;;8.30;99.40;;;;;;5093576;28;20055;-62
2021/01/05 00:40:15;;;;;;;45.37;29.27;;;8.20;99.60;;;;;;5096994;28;20067;-62
2021/01/05 00:42:42;;;;;;;43.33;28.67;;;8.30;99.50;;;;;;5088712;28;20480;-61
2021/01/05 00:45:09;;;;;;;39.77;27.67;;;8.20;99.30;;;;;;5098627;28;20040;-62
2021/01/05 00:47:35;;;;;;;42.47;28.20;;;8.20;99.50;;;;;;5096375;28;20044;-62
2021/01/05 00:50:01;;;;;;;45.23;30.53;;;8.20;99.40;;;;;;5097690;27;20093;-62
2021/01/05 00:52:26;;;;;;;44.47;28.40;;;8.20;99.50;;;;;;5093191;28;20040;-62
2021/01/05 00:54:52;;;;;;;44.23;30.47;;;8.30;99.70;;;;;;5095974;28;20161;-61
2021/01/05 00:57:17;;;;;;;44.57;29.47;;;8.30;99.60;;;;;;5084274;28;20032;-64
2021/01/05 00:59:43;;;;;;;43.27;28.43;;;8.20;99.70;;;;;;5086006;28;20035;-61
2021/01/05 01:02:11;;;;;;;44.70;29.60;;;8.10;99.70;;;;;;5097435;28;20039;-62
2021/01/05 01:04:36;;;;;;;45.67;27.60;;;8.20;99.70;;;;;;5090922;28;20126;-62
2021/01/05 01:07:04;;;;;;;49.70;31.60;;;8.10;99.50;;;;;;5101979;28;20123;-62
2021/01/05 01:12:51;;;;;;;40.07;27.57;;;8.20;99.20;;;;;;5010600;28;20048;-62
2021/01/05 01:15:17;;;;;;;48.27;30.43;;;8.10;99.70;;;;;;5098355;28;20039;-61
2021/01/05 01:17:43;;;;;;;47.63;30.80;;;8.10;99.60;;;;;;5094917;28;20045;-61
2021/01/05 01:20:10;;;;;;;48.93;31.60;;;8.10;99.40;;;;;;5075079;28;20036;-62
2021/01/05 01:22:35;;;;;;;45.80;31.07;;;8.10;99.80;;;;;;5092236;28;20550;-62
2021/01/05 01:25:01;;;;;;;45.37;30.27;;;8.10;99.70;;;;;;5093376;28;20107;-62
2021/01/05 01:27:27;;;;;;;45.53;30.07;;;8.20;99.60;;;;;;5094852;28;20032;-62
2021/01/05 01:29:53;;;;;;;47.23;30.47;;;8.20;99.50;;;;;;5090405;28;20405;-62
2021/01/05 01:32:18;;;;;;;48.37;29.97;;;8.10;99.60;;;;;;5101537;27;20074;-62
2021/01/05 01:34:44;;;;;;;46.00;29.90;;;8.10;99.50;;;;;;5096723;28;20084;-61
2021/01/05 01:37:14;;;;;;;47.03;30.63;;;8.10;99.60;;;;;;5102700;27;20035;-60
2021/01/05 01:39:41;;;;;;;46.87;30.73;;;8.10;99.40;;;;;;5096359;28;20120;-59
2021/01/05 01:42:08;;;;;;;53.10;32.40;;;8.10;99.60;;;;;;5100257;28;20044;-62
2021/01/05 01:44:37;;;;;;;43.60;30.57;;;8.10;99.70;;;;;;5097664;27;20039;-62
2021/01/05 01:47:31;;;;;;;46.23;31.23;;;8.10;99.70;;;;;;5072204;28;20035;-62
2021/01/05 01:50:06;;;;;;;43.77;30.63;;;8.10;99.50;;;;;;5077427;28;20056;-62
2021/01/05 01:52:53;;;;;;;45.40;30.93;;;8.10;99.70;;;;;;5081577;28;20047;-62
2021/01/05 01:55:35;;;;;;;47.63;30.53;;;8.10;99.90;;;;;;5069849;27;20478;-61
2021/01/05 01:58:37;;;;;;;46.20;29.20;;;8.10;99.50;;;;;;5104339;28;20075;-62
2021/01/05 02:01:09;;;;;;;45.40;29.40;;;8.00;99.60;;;;;;5074700;28;21698;-62
2021/01/05 02:03:44;;;;;;;45.47;29.53;;;8.00;99.90;;;;;;5104593;28;20082;-62
2021/01/05 02:07:04;;;;;;;48.15;30.05;;;8.10;99.80;;;;;;5097615;27;20481;-60
2021/01/05 02:09:48;;;;;;;43.87;29.97;;;8.00;99.50;;;;;;4993385;28;20527;-60
2021/01/05 02:12:31;;;;;;;48.33;31.40;;;7.90;99.60;;;;;;5097745;28;20126;-60
2021/01/05 02:15:24;;;;;;;47.20;31.90;;;7.80;99.90;;;;;;5102511;28;20088;-62
2021/01/05 02:18:20;;;;;;;47.37;30.93;;;7.90;99.60;;;;;;5072220;28;20048;-60
2021/01/05 02:20:52;;;;;;;47.50;30.67;;;7.90;99.60;;;;;;5066694;27;20059;-60
2021/01/05 02:23:47;;;;;;;39.87;28.73;;;8.00;99.90;;;;;;5100535;28;20104;-62
2021/01/05 02:26:23;;;;;;;45.92;30.88;;;8.10;99.90;;;;;;5098973;28;20043;-60
2021/01/05 02:28:57;;;;;;;43.73;30.00;;;8.10;99.70;;;;;;5100656;28;20051;-61
2021/01/05 02:31:44;;;;;;;50.30;30.02;;;8.10;99.20;;;;;;5081004;28;20074;-61
2021/01/05 02:34:25;;;;;;;47.47;31.37;;;8.00;99.60;;;;;;5101578;28;20593;-57
2021/01/05 02:37:18;;;;;;;44.50;29.47;;;8.10;99.70;;;;;;5097388;28;20058;-61
2021/01/05 02:40:12;;;;;;;45.77;30.77;;;8.10;99.90;;;;;;5098559;28;20036;-61
2021/01/05 02:43:10;;;;;;;47.80;29.93;;;8.20;99.80;;;;;;5078299;28;20083;-62
2021/01/05 02:45:41;;;;;;;44.27;30.30;;;8.20;99.40;;;;;;5073051;27;20110;-61
2021/01/05 02:48:45;;;;;;;45.77;31.97;;;8.20;99.60;;;;;;5094177;28;20040;-61
2021/01/05 02:51:47;;;;;;;48.17;31.33;;;8.30;99.60;;;;;;4948317;28;20064;-61
2021/01/05 02:54:45;;;;;;;46.67;29.90;;;8.20;99.30;;;;;;4985604;28;20050;-61
2021/01/05 02:57:26;;;;;;;44.63;30.60;;;8.20;99.40;;;;;;5091711;28;20035;-61
2021/01/05 02:59:51;;;;;;;45.17;30.90;;;8.10;99.70;;;;;;5100363;28;20039;-61
2021/01/05 03:02:38;;;;;;;50.13;32.63;;;8.10;99.90;;;;;;5098224;28;20101;-62
2021/01/05 03:05:08;;;;;;;47.40;30.83;;;8.20;99.90;;;;;;5100750;28;20031;-62
2021/01/05 03:07:35;;;;;;;48.27;30.57;;;8.20;99.70;;;;;;5079355;28;20389;-61
2021/01/05 03:10:33;;;;;;;50.53;33.37;;;8.20;99.70;;;;;;5101506;28;20409;-61
2021/01/05 03:13:01;;;;;;;49.70;31.83;;;8.20;99.60;;;;;;5015435;28;20500;-61
2021/01/05 03:15:56;;;;;;;51.10;33.70;;;8.10;99.90;;;;;;5100204;27;20043;-61
2021/01/05 03:18:49;;;;;;;47.13;32.00;;;8.20;99.80;;;;;;5066459;27;20089;-64
2021/01/05 03:21:25;;;;;;;46.70;30.90;;;8.20;99.80;;;;;;5101220;27;20036;-61
2021/01/05 03:23:52;;;;;;;53.60;31.93;;;8.10;99.60;;;;;;5097809;27;20023;-61
2021/01/05 03:26:22;;;;;;;50.40;31.47;;;8.10;99.70;;;;;;5101300;28;20056;-61
2021/01/05 03:28:49;;;;;;;49.07;33.13;;;8.20;99.90;;;;;;5092922;28;20056;-61
2021/01/05 03:31:26;;;;;;;53.63;31.80;;;8.10;99.80;;;;;;5097298;28;20043;-61
2021/01/05 03:33:59;;;;;;;53.53;32.37;;;8.20;99.30;;;;;;5095390;28;20031;-61
2021/01/05 03:36:24;;;;;;;52.03;33.27;;;8.10;99.60;;;;;;5101324;27;20427;-61
2021/01/05 03:38:50;;;;;;;50.50;32.53;;;8.20;99.80;;;;;;5080793;28;20040;-61
2021/01/05 03:41:16;;;;;;;52.60;33.33;;;8.20;99.70;;;;;;5099437;28;20461;-61
2021/01/05 03:43:42;;;;;;;47.80;31.93;;;8.10;99.70;;;;;;5097103;28;20092;-61
2021/01/05 03:46:10;;;;;;;51.90;31.83;;;8.20;99.70;;;;;;5101356;28;20032;-61
2021/01/05 03:48:36;;;;;;;52.63;32.50;;;8.20;99.70;;;;;;5083208;28;20122;-61
2021/01/05 03:51:02;;;;;;;50.17;31.90;;;8.10;99.70;;;;;;5095585;28;20409;-62
2021/01/05 03:53:27;;;;;;;52.27;32.77;;;8.10;99.50;;;;;;5100429;28;20552;-61
2021/01/05 03:55:53;;;;;;;55.80;33.27;;;8.10;99.50;;;;;;5096177;28;22780;-61
2021/01/05 03:58:18;;;;;;;63.53;32.97;;;8.00;99.40;;;;;;5097506;28;20032;-62
2021/01/05 04:00:44;;;;;;;61.50;34.47;;;7.70;99.90;;;;;;5096471;28;20067;-61
2021/01/05 04:03:10;;;;;;;62.50;34.50;;;7.80;99.90;;;;;;5095775;28;20109;-61
2021/01/05 04:05:35;;;;;;;66.37;34.83;;;7.80;99.90;;;;;;5091482;28;20492;-61
2021/01/05 04:08:01;;;;;;;67.17;35.97;;;7.80;99.80;;;;;;5100105;28;20031;-61
2021/01/05 04:10:26;;;;;;;60.00;34.77;;;7.80;99.60;;;;;;5094707;28;20039;-61
2021/01/05 04:12:52;;;;;;;64.60;36.13;;;7.60;99.80;;;;;;5101226;28;20032;-61
2021/01/05 04:15:29;;;;;;;69.13;37.80;;;7.70;99.80;;;;;;5095324;28;20044;-61
2021/01/05 04:17:57;;;;;;;59.77;34.17;;;7.60;99.50;;;;;;5077025;28;20036;-61
2021/01/05 04:20:24;;;;;;;59.47;34.87;;;7.70;99.80;;;;;;5092800;28;20085;-61
2021/01/05 04:22:50;;;;;;;58.03;32.60;;;7.70;99.70;;;;;;5098550;28;20093;-61
2021/01/05 04:25:17;;;;;;;59.23;33.87;;;7.70;99.90;;;;;;5097623;27;20135;-62
2021/01/05 04:27:43;;;;;;;61.87;35.53;;;7.70;99.70;;;;;;5098025;27;20027;-60
2021/01/05 04:30:20;;;;;;;62.27;36.20;;;7.80;99.60;;;;;;5095166;28;20040;-62
2021/01/05 04:32:47;;;;;;;57.30;33.20;;;7.80;99.60;;;;;;5075170;28;20070;-62
2021/01/05 04:35:14;;;;;;;62.77;35.27;;;7.80;99.90;;;;;;5098415;27;20036;-60
2021/01/05 04:37:40;;;;;;;58.97;35.80;;;7.80;99.70;;;;;;5090015;28;20036;-61
2021/01/05 04:40:06;;;;;;;66.53;36.73;;;7.90;99.60;;;;;;5101285;28;20378;-61
2021/01/05 04:42:37;;;;;;;61.13;36.57;;;7.90;99.80;;;;;;5096913;28;20061;-61
2021/01/05 04:45:20;;;;;;;63.63;36.50;;;8.00;99.80;;;;;;5095918;28;20449;-61
2021/01/05 04:48:04;;;;;;;61.93;37.73;;;7.90;99.60;;;;;;5090999;28;20047;-61
2021/01/05 04:50:47;;;;;;;63.80;37.70;;;8.00;99.70;;;;;;5094466;28;20044;-61
2021/01/05 04:53:17;;;;;;;65.70;37.53;;;7.90;99.80;;;;;;5074573;28;20027;-60
2021/01/05 04:55:59;;;;;;;66.60;39.63;;;7.90;99.90;;;;;;5096086;28;20028;-60
2021/01/05 04:58:33;;;;;;;69.40;37.37;;;7.80;99.70;;;;;;5096133;28;20055;-62
2021/01/05 05:01:00;;;;;;;61.10;37.50;;;7.80;99.90;;;;;;5098947;28;20035;-61
2021/01/05 05:03:59;;;;;;;64.73;36.50;;;7.90;99.90;;;;;;5090508;28;20150;-60
2021/01/05 05:06:40;;;;;;;61.83;37.13;;;8.00;99.90;;;;;;5044632;28;20032;-60
2021/01/05 05:09:15;;;;;;;59.90;36.43;;;7.90;99.90;;;;;;5075398;28;20148;-62
2021/01/05 05:12:17;;;;;;;62.43;37.13;;;7.90;99.90;;;;;;5093797;28;20040;-59
2021/01/05 05:14:58;;;;;;;63.33;36.80;;;8.00;99.90;;;;;;5097257;28;20044;-60
2021/01/05 05:17:43;;;;;;;59.17;35.20;;;8.00;99.90;;;;;;5094621;28;20473;-61
2021/01/05 05:20:20;;;;;;;59.40;36.10;;;8.00;99.90;;;;;;5098835;28;20027;-61
2021/01/05 05:23:24;;;;;;;62.33;36.53;;;8.10;99.90;;;;;;5067836;28;20044;-60
2021/01/05 05:26:01;;;;;;;59.23;37.30;;;8.10;99.90;;;;;;5072125;28;20485;-60
2021/01/05 05:28:34;;;;;;;52.80;33.30;;;8.10;99.90;;;;;;5097290;28;20136;-61
2021/01/05 05:31:03;;;;;;;48.83;32.17;;;8.10;99.70;;;;;;5097391;28;20078;-60
2021/01/05 05:33:33;;;;;;;51.50;33.27;;;8.10;99.70;;;;;;5090616;28;20024;-60
2021/01/05 05:36:19;;;;;;;48.97;32.27;;;8.10;99.70;;;;;;5096787;28;20493;-61
2021/01/05 05:39:15;;;;;;;49.73;31.87;;;8.20;99.60;;;;;;5092698;28;20047;-60
2021/01/05 05:42:04;;;;;;;48.87;31.63;;;8.10;99.40;;;;;;5096075;28;20028;-61
2021/01/05 05:44:56;;;;;;;52.77;34.13;;;8.20;99.50;;;;;;5030312;28;20401;-61
2021/01/05 05:47:34;;;;;;;49.73;33.23;;;8.20;99.60;;;;;;5071196;28;20039;-61
2021/01/05 05:50:15;;;;;;;52.67;32.70;;;8.20;99.40;;;;;;5092095;28;20051;-61
2021/01/05 05:52:51;;;;;;;44.60;31.57;;;8.30;99.60;;;;;;5099004;28;20046;-58
2021/01/05 05:55:47;;;;;;;42.53;30.40;;;8.20;99.30;;;;;;5092933;28;20469;-61
2021/01/05 05:58:24;;;;;;;43.77;29.80;;;8.20;98.80;;;;;;5097082;28;20036;-60
2021/01/05 06:00:52;;;;;;;39.00;29.27;;;8.20;98.80;;;;;;5095339;28;20027;-60
2021/01/05 06:03:22;;;;;;;42.00;29.37;;;8.10;99.40;;;;;;5098490;28;20128;-61
2021/01/05 06:05:47;;;;;;;42.80;28.77;;;8.20;99.30;;;;;;5094813;28;20063;-61
2021/01/05 06:08:17;;;;;;;39.43;27.23;;;8.20;99.10;;;;;;5082679;28;20583;-60
2021/01/05 06:10:44;;;;;;;40.90;28.50;;;8.10;99.00;;;;;;5088252;28;20037;-60
2021/01/05 06:13:10;;;;;;;40.03;26.60;;;8.20;99.30;;;;;;5095100;28;20044;-61
2021/01/05 06:15:36;;;;;;;39.67;27.63;;;8.20;99.20;;;;;;5096137;28;20130;-62
2021/01/05 06:18:03;;;;;;;38.30;26.43;;;8.20;99.30;;;;;;5098731;28;20043;-61
2021/01/05 06:20:29;;;;;;;33.43;24.80;;;8.10;98.90;;;;;;5095531;28;20038;-61
2021/01/05 06:22:55;;;;;;;37.37;26.67;;;8.10;99.10;;;;;;5096793;28;20044;-61
2021/01/05 06:25:21;;;;;;;33.97;25.30;;;8.20;99.20;;;;;;5097385;28;20040;-61
2021/01/05 06:27:47;;;;;;;37.30;25.30;;;8.10;98.60;;;;;;5103340;28;20036;-60
2021/01/05 06:30:14;;;;;;;35.13;25.50;;;8.20;99.10;;;;;;5080518;28;20071;-60
2021/01/05 06:32:39;;;;;;;34.73;24.57;;;8.20;99.30;;;;;;5100623;27;20054;-61
2021/01/05 06:35:06;;;;;;;32.60;23.77;;;8.30;99.10;;;;;;5102461;27;20032;-61
2021/01/05 06:37:32;;;;;;;31.93;22.97;;;8.20;98.20;;;;;;5098145;27;20036;-60
2021/01/05 06:39:58;;;;;;;32.83;23.57;;;8.10;99.00;;;;;;5099960;28;20050;-61
2021/01/05 06:42:23;;;;;;;31.87;21.90;;;8.10;99.20;;;;;;5098096;28;20159;-61
2021/01/05 06:44:49;;;;;;;26.97;20.70;;;8.20;98.90;;;;;;5099812;28;20039;-60
2021/01/05 06:47:15;;;;;;;23.50;19.23;;;8.20;98.60;;;;;;5099127;27;20035;-60
2021/01/05 06:49:41;;;;;;;21.97;17.63;;;8.20;98.30;;;;;;5102478;28;20044;-61
2021/01/05 06:52:08;;;;;;;29.67;19.57;;;8.20;98.20;;;;;;5095206;28;20493;-60
2021/01/05 06:54:33;;;;;;;26.50;20.07;;;8.20;98.40;;;;;;5098758;28;20528;-61
2021/01/05 06:57:00;;;;;;;28.53;19.43;;;8.10;98.40;;;;;;5079355;28;20127;-61
2021/01/05 06:59:27;;;;;;;23.27;18.70;;;8.20;98.20;;;;;;5096406;28;20038;-61
2021/01/05 07:02:01;;;;;;;25.47;18.47;;;8.20;98.20;;;;;;5086082;28;20429;-61
2021/01/05 07:04:27;;;;;;;25.40;18.75;;;8.20;98.30;;;;;;5098078;27;20047;-61
2021/01/05 07:06:54;;;;;;;25.70;20.13;;;8.20;98.20;;;;;;5095062;28;20257;-61
2021/01/05 07:09:21;;;;;;;26.50;18.60;;;8.20;97.90;;;;;;5085146;28;20032;-61
2021/01/05 07:11:47;;;;;;;25.60;18.17;;;8.20;97.60;;;;;;5099193;28;20040;-61
2021/01/05 07:14:15;;;;;;;26.33;19.37;;;8.30;97.60;;;;;;5102598;28;20404;-60
2021/01/05 07:16:41;;;;;;;24.07;18.30;;;8.30;97.50;;;;;;5083700;28;20400;-61
2021/01/05 07:19:09;;;;;;;24.23;18.33;;;8.30;97.40;;;;;;5096361;28;20183;-61
2021/01/05 07:21:35;;;;;;;22.23;17.57;;;8.30;97.40;;;;;;5101091;28;20145;-60
2021/01/05 07:24:01;;;;;;;22.67;16.50;;;8.20;97.40;;;;;;5093862;27;20052;-61
2021/01/05 07:26:27;;;;;;;20.47;17.07;;;8.30;97.40;;;;;;5102048;28;20092;-61
2021/01/05 07:28:52;;;;;;;22.90;16.83;;;8.30;97.50;;;;;;5096407;28;20063;-61
2021/01/05 07:31:18;;;;;;;22.60;16.47;;;8.30;97.10;;;;;;5083032;28;20074;-60
2021/01/05 07:33:44;;;;;;;21.20;16.50;;;8.30;97.10;;;;;;5095819;28;20066;-60
2021/01/05 07:36:22;;;;;;;20.70;17.20;;;8.30;97.10;;;;;;5101995;28;20040;-61
2021/01/05 07:38:47;;;;;;;22.77;15.97;;;8.30;96.70;;;;;;5066861;28;20048;-62
2021/01/05 07:41:13;;;;;;;22.53;16.13;;;8.20;97.10;;;;;;5097722;28;20066;-61
2021/01/05 07:43:39;;;;;;;22.03;15.87;;;8.20;97.20;;;;;;5096601;28;20034;-61
2021/01/05 07:46:04;;;;;;;22.10;16.53;;;8.30;97.00;;;;;;5100180;28;20035;-61
2021/01/05 07:48:30;;;;;;;19.27;15.93;;;8.20;97.50;;;;;;5096775;28;20085;-61
2021/01/05 07:50:55;;;;;;;20.43;16.63;;;8.30;97.20;;;;;;5092259;28;20051;-61
2021/01/05 07:53:21;;;;;;;22.23;15.53;;;8.40;97.30;;;;;;5094811;28;20036;-60
2021/01/05 07:55:47;;;;;;;20.60;16.37;;;8.40;96.90;;;;;;5100999;27;20504;-60
2021/01/05 07:58:12;;;;;;;19.43;15.87;;;8.30;97.20;;;;;;5100709;28;20036;-61
2021/01/05 08:00:38;;;;;;;20.43;17.13;;;8.40;97.20;;;;;;5092993;28;20031;-62
2021/01/05 08:03:04;;;;;;;20.07;17.77;;;8.30;96.30;;;;;;5100929;28;20493;-62
2021/01/05 08:05:29;;;;;;;20.07;16.93;;;8.40;97.20;;;;;;5078616;28;20039;-61
2021/01/05 08:07:57;;;;;;;21.93;17.47;;;8.30;96.70;;;;;;5098540;28;20080;-62
2021/01/05 08:10:25;;;;;;;21.83;17.93;;;8.30;97.00;;;;;;5095616;28;20052;-62
2021/01/05 08:12:51;;;;;;;19.20;16.83;;;8.30;97.20;;;;;;5098125;28;20040;-61
2021/01/05 08:15:20;;;;;;;22.57;17.97;;;8.30;97.10;;;;;;5096784;28;20039;-61
2021/01/05 08:17:45;;;;;;;23.50;18.07;;;8.40;96.80;;;;;;5099719;27;20119;-60
2021/01/05 08:20:12;;;;;;;18.60;15.70;;;8.50;97.40;;;;;;5096358;28;20106;-62
2021/01/05 08:22:37;;;;;;;20.70;17.20;;;8.50;97.10;;;;;;5100274;28;20040;-61
2021/01/05 08:25:03;;;;;;;18.37;13.90;;;8.50;97.10;;;;;;5087994;28;20400;-61
2021/01/05 08:27:29;;;;;;;20.17;16.30;;;8.50;96.70;;;;;;5101114;28;20484;-61
2021/01/05 08:29:55;;;;;;;18.07;15.97;;;8.50;97.00;;;;;;5094340;28;22807;-61
2021/01/05 08:32:23;;;;;;;18.20;14.77;;;8.60;97.50;;;;;;5100603;28;20042;-60
2021/01/05 08:34:49;;;;;;;17.53;15.73;;;8.60;96.90;;;;;;5096319;28;20031;-61
2021/01/05 08:37:15;;;;;;;17.70;15.73;;;8.60;97.10;;;;;;5096076;28;20072;-60
2021/01/05 08:39:42;;;;;;;20.03;14.47;;;8.50;96.80;;;;;;5100023;28;20070;-61
2021/01/05 08:42:08;;;;;;;17.37;13.93;;;8.50;96.60;;;;;;5097785;28;20032;-60
2021/01/05 08:44:34;;;;;;;17.23;13.93;;;8.50;95.80;;;;;;5099339;28;20047;-61
2021/01/05 08:47:01;;;;;;;18.63;13.27;;;8.50;96.60;;;;;;5080573;28;20113;-61
2021/01/05 08:49:28;;;;;;;17.00;13.53;;;8.50;96.50;;;;;;5095453;28;20047;-61
2021/01/05 08:51:54;;;;;;;17.30;14.63;;;8.50;96.50;;;;;;5095396;28;20078;-62
2021/01/05 08:54:20;;;;;;;19.40;13.83;;;8.50;97.00;;;;;;5102135;27;20063;-61
2021/01/05 08:56:52;;;;;;;16.20;12.93;;;8.50;96.50;;;;;;5097122;28;20090;-61
2021/01/05 08:59:17;;;;;;;15.57;12.97;;;8.60;96.70;;;;;;5099378;28;20070;-61
2021/01/05 09:01:43;;;;;;;18.63;14.30;;;8.60;96.50;;;;;;5095997;28;20063;-62
2021/01/05 09:04:08;;;;;;;17.80;13.00;;;8.70;96.70;;;;;;5086557;28;20047;-62
2021/01/05 09:06:34;;;;;;;14.33;12.63;;;8.70;96.80;;;;;;5097428;28;20094;-61
2021/01/05 09:09:00;;;;;;;13.43;10.93;;;8.70;96.70;;;;;;5101271;28;21048;-62
2021/01/05 09:11:27;;;;;;;14.10;12.57;;;8.60;96.00;;;;;;5091448;28;20056;-62
2021/01/05 09:13:54;;;;;;;16.33;12.70;;;8.60;96.00;;;;;;5099151;28;20043;-61
2021/01/05 09:16:25;;;;;;;15.73;12.73;;;8.60;96.20;;;;;;5095613;28;20039;-61
2021/01/05 09:18:56;;;;;;;15.33;12.10;;;8.70;96.00;;;;;;5078981;28;20028;-61
2021/01/05 09:21:24;;;;;;;15.83;11.93;;;8.70;95.70;;;;;;5096292;28;20066;-61
2021/01/05 09:23:51;;;;;;;16.60;12.33;;;8.70;96.20;;;;;;5088968;28;20058;-61
2021/01/05 09:26:25;;;;;;;19.10;12.30;;;8.70;96.10;;;;;;5097277;28;20044;-60
2021/01/05 09:28:51;;;;;;;13.63;11.80;;;8.70;95.80;;;;;;5078881;28;20437;-60
2021/01/05 09:31:18;;;;;;;16.77;12.40;;;8.70;96.10;;;;;;5103271;28;20701;-60
2021/01/05 09:33:44;;;;;;;17.97;12.70;;;8.80;96.10;;;;;;5094909;28;20040;-61
2021/01/05 09:36:10;;;;;;;15.97;12.17;;;8.80;96.40;;;;;;5096737;28;20068;-60
2021/01/05 09:38:38;;;;;;;15.60;12.30;;;8.90;96.30;;;;;;5094890;28;20131;-61
2021/01/05 09:41:04;;;;;;;15.60;11.87;;;8.90;96.10;;;;;;5095779;28;26990;-61
2021/01/05 09:43:30;;;;;;;15.57;12.50;;;8.80;95.90;;;;;;5094574;28;20040;-61
2021/01/05 09:45:55;;;;;;;13.17;11.63;;;8.80;96.70;;;;;;5098268;28;20046;-60
2021/01/05 09:48:21;;;;;;;16.57;12.30;;;8.90;96.10;;;;;;5096715;28;20118;-61
2021/01/05 09:50:47;;;;;;;15.30;12.53;;;8.70;95.90;;;;;;5099162;28;20071;-61
2021/01/05 09:53:14;;;;;;;17.03;12.50;;;8.90;96.20;;;;;;5099642;28;20074;-61
2021/01/05 09:55:40;;;;;;;15.53;12.77;;;8.80;95.50;;;;;;5105627;28;20098;-61
2021/01/05 09:58:06;;;;;;;14.10;11.67;;;8.90;96.20;;;;;;5099113;28;20071;-61
2021/01/05 10:00:32;;;;;;;14.50;11.87;;;9.00;95.90;;;;;;5088522;28;20054;-61
2021/01/05 10:02:58;;;;;;;18.70;12.80;;;9.00;95.80;;;;;;5105238;28;20036;-60
2021/01/05 10:05:24;;;;;;;16.77;13.20;;;9.00;96.00;;;;;;5098933;28;20044;-60
2021/01/05 10:07:50;;;;;;;17.23;12.43;;;9.00;95.90;;;;;;5099164;27;20094;-60
2021/01/05 10:10:20;;;;;;;19.13;12.50;;;9.00;94.70;;;;;;5098757;28;20086;-60
2021/01/05 10:12:46;;;;;;;13.97;12.40;;;8.90;95.60;;;;;;5101544;27;20489;-60
2021/01/05 10:15:13;;;;;;;14.63;11.87;;;8.90;96.00;;;;;;5095325;28;20050;-61
2021/01/05 10:17:42;;;;;;;15.27;13.47;;;8.90;95.20;;;;;;5102645;28;20039;-61
2021/01/05 10:20:10;;;;;;;13.60;11.67;;;8.90;96.30;;;;;;5083193;27;20523;-61
2021/01/05 10:22:37;;;;;;;14.17;12.43;;;8.90;95.60;;;;;;5100939;28;20043;-61
2021/01/05 10:25:03;;;;;;;13.00;11.50;;;9.00;96.50;;;;;;5098630;28;20051;-61
2021/01/05 10:27:29;;;;;;;12.70;11.37;;;9.00;95.40;;;;;;5103046;28;20112;-61
2021/01/05 10:29:55;;;;;;;13.97;11.50;;;9.00;95.70;;;;;;5095606;28;20151;-61
2021/01/05 10:32:22;;;;;;;15.80;11.50;;;9.00;95.20;;;;;;5098615;28;20043;-61
2021/01/05 10:34:47;;;;;;;12.93;11.60;;;8.80;95.30;;;;;;5094163;28;20044;-61
2021/01/05 10:37:13;;;;;;;17.20;12.27;;;8.90;96.10;;;;;;5105421;28;20058;-62
2021/01/05 10:39:39;;;;;;;14.07;11.67;;;8.90;95.30;;;;;;5099937;28;20779;-62
2021/01/05 10:42:05;;;;;;;14.37;11.97;;;9.00;96.10;;;;;;5100140;28;20495;-62
2021/01/05 10:44:30;;;;;;;17.20;12.33;;;9.00;95.30;;;;;;5103695;28;20068;-61
2021/01/05 10:47:00;;;;;;;13.93;11.40;;;9.00;95.60;;;;;;5095829;28;20488;-60
2021/01/05 10:49:27;;;;;;;15.67;12.07;;;9.00;95.20;;;;;;5099721;28;20070;-61
2021/01/05 10:51:58;;;;;;;14.80;11.67;;;8.90;95.90;;;;;;5096504;28;20472;-61
2021/01/05 10:54:27;;;;;;;19.47;12.20;;;9.00;95.80;;;;;;5103434;28;20043;-61
2021/01/05 10:57:11;;;;;;;16.60;11.43;;;9.00;95.50;;;;;;5095643;28;20047;-61
2021/01/05 10:59:40;;;;;;;17.63;12.63;;;9.10;96.10;;;;;;5102266;28;20028;-61
2021/01/05 11:02:08;;;;;;;14.77;12.23;;;9.20;96.20;;;;;;5094728;28;20043;-61
2021/01/05 11:04:34;;;;;;;17.53;12.47;;;9.10;95.70;;;;;;5099082;28;20438;-62
2021/01/05 11:07:13;;;;;;;15.50;10.87;;;9.10;95.80;;;;;;5095868;28;20531;-61
2021/01/05 11:09:39;;;;;;;11.63;10.17;;;9.10;95.10;;;;;;5098789;28;20121;-61
2021/01/05 11:12:13;;;;;;;13.67;10.60;;;9.10;95.40;;;;;;5102142;27;20069;-61
2021/01/05 11:14:40;;;;;;;11.00;9.90;;;9.20;95.00;;;;;;5100762;28;20109;-61
2021/01/05 11:17:07;;;;;;;12.60;11.30;;;9.20;94.80;;;;;;5100524;28;20035;-61
2021/01/05 11:19:33;;;;;;;13.17;10.80;;;9.10;94.70;;;;;;5100739;28;20114;-61
2021/01/05 11:22:05;;;;;;;14.07;10.50;;;9.20;94.90;;;;;;5093117;28;20519;-61
2021/01/05 11:24:33;;;;;;;12.17;10.40;;;9.10;95.10;;;;;;5100662;28;20043;-61
2021/01/05 11:26:59;;;;;;;14.90;10.97;;;9.20;95.60;;;;;;5099474;28;20180;-61
2021/01/05 11:29:25;;;;;;;13.70;11.43;;;9.30;95.70;;;;;;5097396;27;20106;-61
2021/01/05 11:32:11;;;;;;;14.10;12.60;;;9.20;95.70;;;;;;5092270;28;20115;-61
2021/01/05 11:34:38;;;;;;;17.53;12.07;;;9.20;96.90;;;;;;5101657;28;20047;-61
2021/01/05 11:37:10;;;;;;;13.20;10.97;;;9.20;96.60;;;;;;5074888;28;20063;-61
2021/01/05 11:39:46;;;;;;;12.83;10.13;;;9.30;95.80;;;;;;5102434;28;20051;-61
2021/01/05 11:42:13;;;;;;;10.67;9.57;;;9.20;95.60;;;;;;5096639;27;20035;-62
2021/01/05 11:44:39;;;;;;;10.43;9.33;;;9.10;95.50;;;;;;5101048;28;20118;-61
2021/01/05 11:47:05;;;;;;;11.40;8.47;;;9.20;95.80;;;;;;5100427;28;20127;-61
2021/01/05 11:49:30;;;;;;;10.70;8.37;;;9.20;95.70;;;;;;5099558;28;20031;-61
2021/01/05 11:51:56;;;;;;;10.57;9.40;;;9.20;95.60;;;;;;5085849;28;20104;-61
2021/01/05 11:54:24;;;;;;;14.90;10.77;;;9.30;95.70;;;;;;5096977;28;20043;-61
2021/01/05 11:56:53;;;;;;;15.77;11.00;;;9.40;96.30;;;;;;5095767;28;20067;-61
2021/01/05 11:59:19;;;;;;;15.67;10.93;;;9.40;96.00;;;;;;5099009;28;20044;-61
2021/01/05 12:01:45;;;;;;;12.03;10.10;;;9.30;95.90;;;;;;5098660;28;20044;-61
2021/01/05 12:04:11;;;;;;;10.23;8.80;;;9.40;95.40;;;;;;5095274;28;20118;-61
2021/01/05 12:06:37;;;;;;;9.87;6.93;;;9.50;95.40;;;;;;5083305;28;20473;-61
2021/01/05 12:09:05;;;;;;;7.30;6.23;;;9.40;95.60;;;;;;5094852;28;20190;-62
2021/01/05 12:11:32;;;;;;;7.47;5.60;;;9.40;94.40;;;;;;5098477;28;20176;-61
2021/01/05 12:13:59;;;;;;;7.47;6.03;;;9.30;94.30;;;;;;5082107;28;20468;-61
2021/01/05 12:16:47;;;;;;;8.50;7.60;;;9.30;94.80;;;;;;5101183;27;20039;-61
2021/01/05 12:19:20;;;;;;;8.87;7.77;;;9.30;94.60;;;;;;5047692;28;20559;-61
2021/01/05 12:21:46;;;;;;;9.00;7.10;;;9.40;94.90;;;;;;5056214;28;20068;-60
2021/01/05 12:24:21;;;;;;;8.13;6.83;;;9.30;94.80;;;;;;5037267;28;20127;-61
2021/01/05 12:26:47;;;;;;;;;;;9.40;94.20;;;;;;5058601;28;20040;-60
2021/01/05 12:29:15;;;;;;;9.93;6.37;;;9.40;94.50;;;;;;5050516;28;19920;-62
2021/01/05 12:31:43;;;;;;;7.33;5.97;;;9.20;95.10;;;;;;5056314;28;20049;-61
2021/01/05 12:34:10;;;;;;;9.83;7.97;;;9.40;94.80;;;;;;5045530;28;20036;-62
2021/01/05 12:36:39;;;;;;;6.97;6.00;;;9.50;94.60;;;;;;5055689;28;20413;-61
2021/01/05 12:39:08;;;;;;;9.20;5.77;;;9.60;94.50;;;;;;5058103;28;20071;-62
2021/01/05 12:41:36;;;;;;;6.73;5.70;;;9.50;94.80;;;;;;5051149;28;20474;-62
2021/01/05 12:44:04;;;;;;;9.40;6.53;;;9.60;94.30;;;;;;5053968;28;20461;-62
2021/01/05 12:46:33;;;;;;;10.03;6.60;;;9.50;94.70;;;;;;5047818;28;20029;-62
2021/01/05 12:48:59;;;;;;;7.80;6.20;;;9.50;95.10;;;;;;5052952;28;20044;-61
2021/01/05 12:51:33;;;;;;;10.10;7.27;;;9.60;94.90;;;;;;5096097;28;20062;-61
2021/01/05 12:53:59;;;;;;;8.13;5.80;;;9.50;94.20;;;;;;5099595;28;20036;-61
2021/01/05 12:56:25;;;;;;;7.40;5.73;;;9.40;93.80;;;;;;5095951;28;20115;-61
2021/01/05 12:58:51;;;;;;;7.53;5.93;;;9.20;92.80;;;;;;5082340;28;20127;-60